createdAt,value
2022-08-20T00:01:20.132Z,101884.47
2022-08-20T00:03:53.181Z,101884.81
2022-08-20T00:06:22.756Z,101874.91
2022-08-20T00:08:50.977Z,101881.09
2022-08-20T00:11:22.916Z,101887.50
2022-08-20T00:13:53.176Z,101878.41
2022-08-20T00:16:22.550Z,101877.09
2022-08-20T00:18:50.787Z,101871.03
2022-08-20T00:21:19.859Z,101872.25
2022-08-20T00:23:49.196Z,101871.41
2022-08-20T00:26:17.735Z,101874.09
2022-08-20T00:28:47.427Z,101866.88
2022-08-20T00:31:17.365Z,101870.69
2022-08-20T00:33:45.392Z,101873.69
2022-08-20T00:36:13.437Z,101859.72
2022-08-20T00:38:42.891Z,101856.50
2022-08-20T00:41:13.173Z,101848.75
2022-08-20T00:43:43.136Z,101847.91
2022-08-20T00:46:14.801Z,101849.13
2022-08-20T00:48:44.801Z,101853.28
2022-08-20T00:51:15.144Z,101849.59
2022-08-20T00:53:43.312Z,101850.75
2022-08-20T00:56:11.609Z,101844.88
2022-08-20T00:58:41.224Z,101851.44
2022-08-20T01:01:09.469Z,101849.78
2022-08-20T01:03:39.811Z,101844.03
2022-08-20T01:06:09.304Z,101846.06
2022-08-20T01:08:37.318Z,101847.19
2022-08-20T01:11:10.257Z,101849.88
2022-08-20T01:13:38.813Z,101847.38
2022-08-20T01:16:11.940Z,101853.78
2022-08-20T01:18:42.488Z,101849.69
2022-08-20T01:21:10.613Z,101852.06
2022-08-20T01:23:43.237Z,101845.16
2022-08-20T01:26:13.813Z,101841.28
2022-08-20T01:28:43.645Z,101842.75
2022-08-20T01:31:13.185Z,101848.81
2022-08-20T01:33:41.475Z,101852.72
2022-08-20T01:36:12.825Z,101844.16
2022-08-20T01:38:41.068Z,101843.31
2022-08-20T01:41:43.818Z,101858.09
2022-08-20T01:44:16.971Z,101845.78
2022-08-20T01:46:47.088Z,101850.78
2022-08-20T01:49:22.988Z,101842.19
2022-08-20T01:51:51.908Z,101843.97
2022-08-20T01:54:20.075Z,101848.25
2022-08-20T01:56:55.008Z,101841.34
2022-08-20T01:59:23.225Z,101849.31
2022-08-20T02:01:51.575Z,101849.97
2022-08-20T02:04:19.810Z,101840.88
2022-08-20T02:06:56.209Z,101837.19
2022-08-20T02:09:26.586Z,101836.91
2022-08-20T02:11:56.572Z,101830.25
2022-08-20T02:14:24.715Z,101841.34
2022-08-20T02:16:54.667Z,101835.56
2022-08-20T02:19:25.613Z,101829.50
2022-08-20T02:22:03.133Z,101846.34
2022-08-20T02:24:31.384Z,101840.28
2022-08-20T02:27:01.164Z,101839.66
2022-08-20T02:29:29.365Z,101838.66
2022-08-20T02:32:25.155Z,101837.59
2022-08-20T02:34:45.479Z,101833.72
2022-08-20T02:37:15.013Z,101827.13
2022-08-20T02:39:43.251Z,101828.59
2022-08-20T02:42:15.603Z,101830.13
2022-08-20T02:44:43.724Z,101837.97
2022-08-20T02:47:11.748Z,101834.84
2022-08-20T02:49:39.934Z,101825.53
2022-08-20T02:52:08.201Z,101822.50
2022-08-20T02:54:36.222Z,101826.94
2022-08-20T02:57:05.051Z,101829.38
2022-08-20T02:59:34.512Z,101828.56
2022-08-20T03:02:02.562Z,101834.78
2022-08-20T03:04:31.117Z,101817.16
2022-08-20T03:06:59.161Z,101823.03
2022-08-20T03:09:27.194Z,101813.06
2022-08-20T03:11:55.316Z,101816.16
2022-08-20T03:14:23.552Z,101814.13
2022-08-20T03:16:53.079Z,101806.53
2022-08-20T03:19:21.147Z,101815.38
2022-08-20T03:21:49.184Z,101810.34
2022-08-20T03:24:17.257Z,101804.69
2022-08-20T03:26:45.364Z,101804.56
2022-08-20T03:29:13.536Z,101802.25
2022-08-20T03:31:41.564Z,101789.59
2022-08-20T03:34:10.971Z,101791.97
2022-08-20T03:36:39.243Z,101786.53
2022-08-20T03:39:11.147Z,101780.44
2022-08-20T03:41:39.672Z,101796.59
2022-08-20T03:44:07.941Z,101793.25
2022-08-20T03:46:36.064Z,101794.47
2022-08-20T03:49:04.252Z,101786.75
2022-08-20T03:51:53.543Z,101793.22
2022-08-20T03:54:22.014Z,101789.84
2022-08-20T03:56:50.034Z,101786.28
2022-08-20T03:59:18.076Z,101787.25
2022-08-20T04:01:46.966Z,101781.97
2022-08-20T04:04:15.312Z,101784.16
2022-08-20T04:06:45.876Z,101782.13
2022-08-20T04:09:13.899Z,101783.44
2022-08-20T04:11:42.079Z,101787.97
2022-08-20T04:14:11.040Z,101785.78
2022-08-20T04:16:40.271Z,101791.44
2022-08-20T04:19:08.496Z,101788.56
2022-08-20T04:21:36.740Z,101794.19
2022-08-20T04:24:06.657Z,101787.25
2022-08-20T04:26:37.295Z,101779.56
2022-08-20T04:29:05.419Z,101789.38
2022-08-20T04:31:34.824Z,101792.22
2022-08-20T04:34:03.118Z,101796.25
2022-08-20T04:36:31.219Z,101789.31
2022-08-20T04:38:59.191Z,101800.75
2022-08-20T04:41:28.917Z,101803.13
2022-08-20T04:43:57.101Z,101801.81
2022-08-20T04:46:28.500Z,101800.97
2022-08-20T04:48:57.031Z,101805.84
2022-08-20T04:51:25.226Z,101807.13
2022-08-20T04:53:56.279Z,101808.16
2022-08-20T04:56:26.090Z,101798.09
2022-08-20T04:58:56.752Z,101807.69
2022-08-20T05:01:26.065Z,101809.69
2022-08-20T05:03:55.273Z,101809.56
2022-08-20T05:06:24.705Z,101816.13
2022-08-20T05:08:53.375Z,101817.34
2022-08-20T05:11:33.886Z,101813.00
2022-08-20T05:14:07.725Z,101812.38
2022-08-20T05:16:39.040Z,101821.81
2022-08-20T05:19:08.852Z,101822.13
2022-08-20T05:21:37.340Z,101828.19
2022-08-20T05:24:06.050Z,101823.09
2022-08-20T05:26:34.524Z,101831.16
2022-08-20T05:29:04.797Z,101826.50
2022-08-20T05:31:34.744Z,101832.91
2022-08-20T05:34:03.273Z,101835.28
2022-08-20T05:36:31.301Z,101843.69
2022-08-20T05:38:59.377Z,101842.22
2022-08-20T05:41:30.189Z,101850.25
2022-08-20T05:44:00.660Z,101853.38
2022-08-20T05:46:29.006Z,101851.13
2022-08-20T05:48:59.896Z,101849.25
2022-08-20T05:51:28.875Z,101841.31
2022-08-20T05:53:59.021Z,101846.88
2022-08-20T05:56:30.783Z,101864.03
2022-08-20T05:59:01.049Z,101855.31
2022-08-20T06:01:29.185Z,101862.41
2022-08-20T06:04:15.956Z,101865.25
2022-08-20T06:06:46.112Z,101866.44
2022-08-20T06:09:15.171Z,101866.78
2022-08-20T06:11:43.238Z,101868.75
2022-08-20T06:14:11.307Z,101866.75
2022-08-20T06:16:39.389Z,101869.72
2022-08-20T06:19:24.988Z,101869.03
2022-08-20T06:21:54.459Z,101872.38
2022-08-20T06:24:22.628Z,101874.06
2022-08-20T06:26:56.696Z,101879.75
2022-08-20T06:29:24.861Z,101878.03
2022-08-20T06:31:52.884Z,101880.69
2022-08-20T06:34:22.332Z,101879.97
2022-08-20T06:36:50.337Z,101889.91
2022-08-20T06:39:18.366Z,101888.22
2022-08-20T06:41:46.426Z,101883.69
2022-08-20T06:44:15.191Z,101870.06
2022-08-20T06:46:43.410Z,101879.25
2022-08-20T06:49:11.536Z,101889.19
2022-08-20T06:51:41.443Z,101882.84
2022-08-20T06:54:09.729Z,101876.28
2022-08-20T06:56:37.853Z,101874.09
2022-08-20T06:59:05.943Z,101878.31
2022-08-20T07:01:34.452Z,101874.09
2022-08-20T07:04:02.546Z,101883.00
2022-08-20T07:06:31.172Z,101879.31
2022-08-20T07:09:00.649Z,101879.31
2022-08-20T07:11:29.138Z,101890.25
2022-08-20T07:13:58.166Z,101882.38
2022-08-20T07:16:26.336Z,101876.28
2022-08-20T07:18:54.370Z,101875.56
2022-08-20T07:21:22.437Z,101883.47
2022-08-20T07:23:50.543Z,101881.66
2022-08-20T07:26:20.464Z,101882.00
2022-08-20T07:28:48.507Z,101876.44
2022-08-20T07:31:35.815Z,101879.63
2022-08-20T07:34:03.889Z,101879.81
2022-08-20T07:36:32.891Z,101882.97
2022-08-20T07:39:06.170Z,101884.31
2022-08-20T07:41:38.705Z,101876.88
2022-08-20T07:44:07.306Z,101883.22
2022-08-20T07:46:35.595Z,101865.31
2022-08-20T07:49:09.928Z,101866.59
2022-08-20T07:51:38.060Z,101878.59
2022-08-20T07:54:08.653Z,101874.50
2022-08-20T07:56:38.239Z,101879.25
2022-08-20T07:59:06.408Z,101875.25
2022-08-20T08:01:35.204Z,101884.53
2022-08-20T08:04:03.820Z,101890.28
2022-08-20T08:06:31.948Z,101878.66
2022-08-20T08:09:03.489Z,101883.03
2022-08-20T08:11:33.065Z,101884.06
2022-08-20T08:14:03.523Z,101871.06
2022-08-20T08:16:32.584Z,101868.84
2022-08-20T08:19:02.166Z,101872.66
2022-08-20T08:21:31.376Z,101880.22
2022-08-20T08:23:59.502Z,101880.69
2022-08-20T08:26:29.042Z,101870.03
2022-08-20T08:28:58.454Z,101870.53
2022-08-20T08:31:28.263Z,101878.44
2022-08-20T08:33:56.819Z,101882.97
2022-08-20T08:36:27.425Z,101880.28
2022-08-20T08:38:56.116Z,101875.53
2022-08-20T08:41:29.286Z,101882.41
2022-08-20T08:44:00.558Z,101883.44
2022-08-20T08:46:34.639Z,101883.25
2022-08-20T08:49:02.898Z,101883.75
2022-08-20T08:51:35.051Z,101887.72
2022-08-20T08:54:06.856Z,101887.25
2022-08-20T08:56:35.888Z,101880.84
2022-08-20T08:59:05.694Z,101893.78
2022-08-20T09:01:53.779Z,101884.78
2022-08-20T09:04:25.232Z,101886.25
2022-08-20T09:06:54.506Z,101878.47
2022-08-20T09:09:23.744Z,101888.88
2022-08-20T09:11:53.976Z,101885.44
2022-08-20T09:14:25.120Z,101889.06
2022-08-20T09:16:54.683Z,101888.44
2022-08-20T09:19:23.830Z,101881.63
2022-08-20T09:21:52.222Z,101877.91
2022-08-20T09:24:22.534Z,101880.34
2022-08-20T09:26:50.772Z,101889.16
2022-08-20T09:29:18.977Z,101897.06
2022-08-20T09:31:47.161Z,101881.25
2022-08-20T09:34:18.989Z,101894.09
2022-08-20T09:36:48.709Z,101888.03
2022-08-20T09:39:22.467Z,101890.28
2022-08-20T09:41:51.182Z,101896.50
2022-08-20T09:44:19.407Z,101887.78
2022-08-20T09:46:47.558Z,101883.50
2022-08-20T09:49:18.668Z,101885.44
2022-08-20T09:51:46.940Z,101885.91
2022-08-20T09:54:22.531Z,101880.13
2022-08-20T09:56:52.153Z,101885.16
2022-08-20T09:59:20.436Z,101881.81
2022-08-20T10:01:48.673Z,101883.47
2022-08-20T10:04:18.463Z,101884.88
2022-08-20T10:06:48.298Z,101874.50
2022-08-20T10:09:19.415Z,101880.94
2022-08-20T10:11:48.398Z,101883.81
2022-08-20T10:14:16.520Z,101876.56
2022-08-20T10:16:45.899Z,101880.16
2022-08-20T10:19:14.085Z,101881.84
2022-08-20T10:21:43.971Z,101872.72
2022-08-20T10:24:12.148Z,101872.06
2022-08-20T10:26:41.616Z,101887.97
2022-08-20T10:29:09.940Z,101887.38
2022-08-20T10:31:48.993Z,101874.94
2022-08-20T10:34:17.214Z,101878.53
2022-08-20T10:36:47.208Z,101881.47
2022-08-20T10:39:16.609Z,101871.75
2022-08-20T10:41:45.160Z,101868.28
2022-08-20T10:44:14.660Z,101882.16
2022-08-20T10:46:47.690Z,101873.66
2022-08-20T10:49:18.574Z,101883.25
2022-08-20T10:51:56.586Z,101879.56
2022-08-20T10:54:25.641Z,101872.34
2022-08-20T10:56:53.818Z,101869.56
2022-08-20T10:59:22.069Z,101880.84
2022-08-20T11:01:50.345Z,101867.09
2022-08-20T11:04:18.545Z,101873.44
2022-08-20T11:06:49.396Z,101872.06
2022-08-20T11:09:17.806Z,101879.34
2022-08-20T11:11:46.022Z,101862.81
2022-08-20T11:14:14.574Z,101861.16
2022-08-20T11:16:42.931Z,101868.13
2022-08-20T11:19:11.101Z,101852.84
2022-08-20T11:21:39.584Z,101874.81
2022-08-20T11:24:09.331Z,101873.59
2022-08-20T11:26:37.644Z,101872.38
2022-08-20T11:29:06.908Z,101871.94
2022-08-20T11:31:36.411Z,101879.84
2022-08-20T11:34:10.675Z,101871.88
2022-08-20T11:36:40.871Z,101882.41
2022-08-20T11:39:12.649Z,101847.75
2022-08-20T11:41:41.624Z,101869.25
2022-08-20T11:44:21.765Z,101869.50
2022-08-20T11:46:50.478Z,101872.38
2022-08-20T11:49:18.922Z,101872.16
2022-08-20T11:51:49.692Z,101864.88
2022-08-20T11:54:20.073Z,101869.91
2022-08-20T11:56:50.706Z,101866.13
2022-08-20T11:59:22.601Z,101858.69
2022-08-20T12:02:03.250Z,101873.69
2022-08-20T12:04:46.696Z,101865.38
2022-08-20T12:07:17.112Z,101866.66
2022-08-20T12:09:50.895Z,101865.38
2022-08-20T12:12:20.505Z,101864.13
2022-08-20T12:14:49.338Z,101862.66
2022-08-20T12:17:21.400Z,101861.22
2022-08-20T12:19:51.350Z,101850.59
2022-08-20T12:22:24.756Z,101864.78
2022-08-20T12:24:57.862Z,101859.97
2022-08-20T12:27:28.810Z,101850.81
2022-08-20T12:30:01.809Z,101863.09
2022-08-20T12:32:33.667Z,101860.38
2022-08-20T12:35:02.006Z,101859.34
2022-08-20T12:37:31.777Z,101859.34
2022-08-20T12:40:04.700Z,101842.66
2022-08-20T12:42:33.058Z,101859.13
2022-08-20T12:45:01.705Z,101852.47
2022-08-20T12:47:30.946Z,101844.13
2022-08-20T12:50:02.092Z,101840.97
2022-08-20T12:52:30.899Z,101833.88
2022-08-20T12:54:59.480Z,101837.63
2022-08-20T12:57:31.467Z,101841.16
2022-08-20T13:00:00.640Z,101840.16
2022-08-20T13:02:32.372Z,101840.34
2022-08-20T13:05:04.862Z,101839.94
2022-08-20T13:07:45.542Z,101840.38
2022-08-20T13:10:16.543Z,101845.59
2022-08-20T13:12:49.512Z,101836.19
2022-08-20T13:15:18.194Z,101824.13
2022-08-20T13:17:53.450Z,101841.59
2022-08-20T13:20:21.900Z,101837.44
2022-08-20T13:22:50.282Z,101829.09
2022-08-20T13:25:18.670Z,101833.63
2022-08-20T13:27:48.724Z,101847.47
2022-08-20T13:30:19.583Z,101827.00
2022-08-20T13:32:48.048Z,101834.44
2022-08-20T13:35:16.232Z,101834.41
2022-08-20T13:37:44.512Z,101831.44
2022-08-20T13:40:13.502Z,101842.69
2022-08-20T13:42:41.576Z,101835.06
2022-08-20T13:45:19.194Z,101837.91
2022-08-20T13:47:47.307Z,101834.34
2022-08-20T13:50:17.125Z,101823.59
2022-08-20T13:52:45.931Z,101816.16
2022-08-20T13:55:15.670Z,101832.81
2022-08-20T13:57:48.019Z,101820.94
2022-08-20T14:00:31.934Z,101819.91
2022-08-20T14:03:00.625Z,101826.13
2022-08-20T14:05:29.027Z,101836.56
2022-08-20T14:07:57.410Z,101826.09
2022-08-20T14:10:31.306Z,101820.09
2022-08-20T14:12:59.807Z,101822.13
2022-08-20T14:15:33.048Z,101828.31
2022-08-20T14:18:01.401Z,101814.75
2022-08-20T14:20:32.185Z,101808.53
2022-08-20T14:23:01.448Z,101805.69
2022-08-20T14:25:29.991Z,101805.00
2022-08-20T14:27:59.351Z,101814.59
2022-08-20T14:30:31.362Z,101804.28
2022-08-20T14:32:59.463Z,101803.41
2022-08-20T14:35:27.957Z,101803.81
2022-08-20T14:37:57.921Z,101799.41
2022-08-20T14:40:27.830Z,101797.56
2022-08-20T14:42:57.040Z,101804.72
2022-08-20T14:45:25.420Z,101801.28
2022-08-20T14:47:57.102Z,101801.25
2022-08-20T14:50:27.627Z,101811.97
2022-08-20T14:52:55.958Z,101799.69
2022-08-20T14:55:25.656Z,101795.19
2022-08-20T14:57:54.396Z,101798.34
2022-08-20T15:00:25.067Z,101799.78
2022-08-20T15:02:54.758Z,101798.56
2022-08-20T15:05:23.720Z,101803.72
2022-08-20T15:07:53.779Z,101796.81
2022-08-20T15:10:23.709Z,101798.09
2022-08-20T15:12:52.060Z,101804.16
2022-08-20T15:15:20.456Z,101792.56
2022-08-20T15:17:49.831Z,101789.84
2022-08-20T15:20:21.167Z,101793.59
2022-08-20T15:22:49.549Z,101800.94
2022-08-20T15:25:19.115Z,101797.44
2022-08-20T15:27:47.366Z,101795.91
2022-08-20T15:30:18.722Z,101784.88
2022-08-20T15:32:49.266Z,101783.00
2022-08-20T15:35:23.496Z,101793.78
2022-08-20T15:37:51.822Z,101794.44
2022-08-20T15:40:27.904Z,101784.81
2022-08-20T15:42:57.085Z,101798.59
2022-08-20T15:45:25.426Z,101792.53
2022-08-20T15:47:55.580Z,101790.00
2022-08-20T15:50:45.443Z,101802.72
2022-08-20T15:53:17.612Z,101796.66
2022-08-20T15:55:51.773Z,101799.72
2022-08-20T15:58:25.175Z,101786.81
2022-08-20T16:01:04.978Z,101784.09
2022-08-20T16:04:16.937Z,101772.63
2022-08-20T16:06:46.604Z,101778.59
2022-08-20T16:09:28.897Z,101782.50
2022-08-20T16:12:07.672Z,101765.41
2022-08-20T16:14:37.929Z,101774.97
2022-08-20T16:17:08.020Z,101781.59
2022-08-20T16:19:41.164Z,101770.97
2022-08-20T16:22:10.678Z,101763.66
2022-08-20T16:24:38.850Z,101763.78
2022-08-20T16:27:12.639Z,101757.00
2022-08-20T16:29:47.023Z,101765.34
2022-08-20T16:32:18.769Z,101756.41
2022-08-20T16:34:49.069Z,101761.97
2022-08-20T16:37:22.903Z,101769.84
2022-08-20T16:39:54.698Z,101762.31
2022-08-20T16:42:28.286Z,101755.91
2022-08-20T16:44:57.460Z,101754.84
2022-08-20T16:47:28.104Z,101756.69
2022-08-20T16:50:01.237Z,101761.88
2022-08-20T16:52:30.680Z,101754.50
2022-08-20T16:54:58.939Z,101758.66
2022-08-20T16:57:28.154Z,101749.16
2022-08-20T16:59:59.588Z,101744.78
2022-08-20T17:02:27.755Z,101741.06
2022-08-20T17:05:00.097Z,101745.00
2022-08-20T17:07:33.477Z,101741.28
2022-08-20T17:10:21.107Z,101736.34
2022-08-20T17:12:53.963Z,101740.50
2022-08-20T17:15:25.527Z,101740.78
2022-08-20T17:17:55.783Z,101737.72
2022-08-20T17:20:25.696Z,101739.56
2022-08-20T17:23:09.319Z,101725.66
2022-08-20T17:25:38.504Z,101730.22
2022-08-20T17:28:14.505Z,101724.84
2022-08-20T17:30:43.123Z,101709.69
2022-08-20T17:33:22.956Z,101720.59
2022-08-20T17:35:52.992Z,101721.69
2022-08-20T17:38:28.361Z,101712.53
2022-08-20T17:40:59.793Z,101723.78
2022-08-20T17:43:29.192Z,101718.06
2022-08-20T17:45:57.283Z,101714.34
2022-08-20T17:48:25.909Z,101720.38
2022-08-20T17:50:54.125Z,101721.78
2022-08-20T17:53:23.844Z,101719.03
2022-08-20T17:55:54.767Z,101727.09
2022-08-20T17:58:32.871Z,101729.69
2022-08-20T18:01:00.949Z,101719.84
2022-08-20T18:03:29.148Z,101742.66
2022-08-20T18:05:59.124Z,101740.09
2022-08-20T18:08:40.184Z,101741.06
2022-08-20T18:11:16.621Z,101731.66
2022-08-20T18:13:53.846Z,101733.28
2022-08-20T18:16:26.869Z,101733.22
2022-08-20T18:18:57.567Z,101733.41
2022-08-20T18:21:51.604Z,101738.63
2022-08-20T18:24:21.633Z,101729.88
2022-08-20T18:26:52.954Z,101741.06
2022-08-20T18:29:27.607Z,101747.88
2022-08-20T18:31:56.975Z,101738.50
2022-08-20T18:34:36.831Z,101739.72
2022-08-20T18:37:06.593Z,101746.72
2022-08-20T18:39:37.777Z,101748.16
2022-08-20T18:42:09.087Z,101749.97
2022-08-20T18:44:44.551Z,101742.59
2022-08-20T18:47:21.838Z,101748.22
2022-08-20T18:50:00.557Z,101753.09
2022-08-20T18:52:31.126Z,101747.03
2022-08-20T18:55:00.238Z,101750.97
2022-08-20T18:57:41.382Z,101742.16
2022-08-20T19:00:13.917Z,101752.50
2022-08-20T19:02:56.042Z,101750.84
2022-08-20T19:05:27.703Z,101759.31
2022-08-20T19:07:55.863Z,101758.28
2022-08-20T19:10:40.266Z,101748.16
2022-08-20T19:13:46.059Z,101735.09
2022-08-20T19:16:16.230Z,101734.25
2022-08-20T19:18:47.996Z,101735.47
2022-08-20T19:21:16.279Z,101731.97
2022-08-20T19:23:49.081Z,101744.97
2022-08-20T19:26:25.164Z,101735.94
2022-08-20T19:28:56.738Z,101736.97
2022-08-20T19:31:26.658Z,101736.97
2022-08-20T19:34:02.120Z,101734.84
2022-08-20T19:36:30.758Z,101746.84
2022-08-20T19:38:59.585Z,101754.28
2022-08-20T19:41:31.683Z,101747.13
2022-08-20T19:44:01.237Z,101743.81
2022-08-20T19:46:31.498Z,101750.06
2022-08-20T19:49:12.165Z,101745.50
2022-08-20T19:51:47.980Z,101746.53
2022-08-20T19:54:20.629Z,101734.72
2022-08-20T19:56:48.729Z,101743.41
2022-08-20T19:59:21.018Z,101732.00
2022-08-20T20:01:58.810Z,101741.75
2022-08-20T20:04:29.727Z,101742.31
2022-08-20T20:06:58.402Z,101740.22
2022-08-20T20:09:27.612Z,101728.31
2022-08-20T20:11:58.861Z,101729.06
2022-08-20T20:14:31.370Z,101725.72
2022-08-20T20:16:59.493Z,101719.41
2022-08-20T20:19:28.500Z,101720.97
2022-08-20T20:22:08.523Z,101720.06
2022-08-20T20:24:49.969Z,101721.81
2022-08-20T20:27:23.202Z,101716.31
2022-08-20T20:29:59.409Z,101722.28
2022-08-20T20:32:27.669Z,101727.38
2022-08-20T20:34:56.808Z,101720.31
2022-08-20T20:37:48.702Z,101715.69
2022-08-20T20:40:23.434Z,101721.59
2022-08-20T20:42:58.822Z,101716.59
2022-08-20T20:45:31.997Z,101723.19
2022-08-20T20:48:00.056Z,101718.16
2022-08-20T20:50:32.655Z,101709.44
2022-08-20T20:53:03.388Z,101705.06
2022-08-20T20:55:32.517Z,101709.44
2022-08-20T20:58:02.630Z,101702.38
2022-08-20T21:00:33.667Z,101716.88
2022-08-20T21:03:02.629Z,101716.97
2022-08-20T21:05:31.990Z,101726.53
2022-08-20T21:08:01.063Z,101722.44
2022-08-20T21:10:32.159Z,101730.53
2022-08-20T21:13:00.854Z,101722.44
2022-08-20T21:15:29.102Z,101725.13
2022-08-20T21:17:59.303Z,101720.41
2022-08-20T21:20:27.792Z,101720.03
2022-08-20T21:22:57.174Z,101714.63
2022-08-20T21:25:25.536Z,101710.28
2022-08-20T21:27:53.647Z,101709.63
2022-08-20T21:30:22.297Z,101715.84
2022-08-20T21:32:50.413Z,101706.28
2022-08-20T21:35:20.037Z,101702.13
2022-08-20T21:37:48.076Z,101707.13
2022-08-20T21:40:18.159Z,101709.63
2022-08-20T21:42:49.687Z,101696.81
2022-08-20T21:45:18.711Z,101705.53
2022-08-20T21:47:48.877Z,101699.13
2022-08-20T21:50:22.117Z,101700.16
2022-08-20T21:52:59.534Z,101694.41
2022-08-20T21:55:30.451Z,101687.34
2022-08-20T21:57:58.815Z,101688.53
2022-08-20T22:00:53.410Z,101693.47
2022-08-20T22:03:22.585Z,101696.06
2022-08-20T22:05:52.983Z,101697.25
2022-08-20T22:08:21.155Z,101701.81
2022-08-20T22:10:54.551Z,101700.34
2022-08-20T22:13:22.976Z,101706.75
2022-08-20T22:15:50.958Z,101703.03
2022-08-20T22:18:19.054Z,101701.19
2022-08-20T22:20:47.180Z,101707.38
2022-08-20T22:23:16.689Z,101703.88
2022-08-20T22:25:44.690Z,101702.75
2022-08-20T22:28:12.704Z,101705.81
2022-08-20T22:30:42.444Z,101707.66
2022-08-20T22:33:12.403Z,101709.03
2022-08-20T22:35:42.435Z,101716.75
2022-08-20T22:38:10.496Z,101719.28
2022-08-20T22:40:39.885Z,101710.19
2022-08-20T22:43:07.985Z,101710.19
2022-08-20T22:45:36.071Z,101706.75
2022-08-20T22:48:05.054Z,101695.22
2022-08-20T22:50:33.103Z,101699.59
2022-08-20T22:53:01.695Z,101686.31
2022-08-20T22:55:29.735Z,101675.53
2022-08-20T22:57:59.175Z,101671.00
2022-08-20T23:00:29.048Z,101670.16
2022-08-20T23:02:58.384Z,101668.31
2022-08-20T23:05:27.834Z,101669.31
2022-08-20T23:07:55.872Z,101670.34
2022-08-20T23:10:24.034Z,101689.94
2022-08-20T23:12:52.156Z,101691.59
2022-08-20T23:15:21.826Z,101683.25
2022-08-20T23:17:50.074Z,101690.28
2022-08-20T23:20:18.611Z,101682.41
2022-08-20T23:22:46.647Z,101679.72
2022-08-20T23:25:16.463Z,101675.53
2022-08-20T23:27:45.707Z,101670.97
2022-08-20T23:30:14.396Z,101681.56
2022-08-20T23:32:43.875Z,101674.97
2022-08-20T23:35:12.134Z,101681.69
2022-08-20T23:37:42.587Z,101676.13
2022-08-20T23:40:11.659Z,101678.06
2022-08-20T23:42:39.857Z,101679.16
2022-08-20T23:45:09.022Z,101670.53
2022-08-20T23:47:37.356Z,101673.69
2022-08-20T23:50:08.805Z,101675.72
2022-08-20T23:52:36.856Z,101668.03
2022-08-20T23:55:05.387Z,101670.53
2022-08-20T23:57:33.524Z,101667.81
